Time;durP1;ratioP1;P1;durP2;ratioP2;P2;SDS_P1;SDS_P2;PMS_P1;PMS_P2;Temp;Humidity;BMP_temperature;BMP_pressure;BME280_temperature;BME280_humidity;BME280_pressure;Samples;Min_cycle;Max_cycle;Signal;HPM_P1;HPM_P2
2021/10/03 00:00:51;;;;;;;;;;;;;;;29.64;31.18;101615.25;5015537;28;1020;-32
2021/10/03 00:03:18;;;;;;;;;;;;;;;30.33;30.50;101601.81;4998665;28;1149;-36
2021/10/03 00:05:44;;;;;;;;;;;;;;;30.10;30.52;101599.13;5015548;28;1133;-36
2021/10/03 00:08:09;;;;;;;;;;;;;;;29.75;30.96;101594.13;5015222;28;882;-34
2021/10/03 00:10:35;;;;;;;;;;;;;;;29.54;31.51;101595.63;5015712;28;1160;-36
2021/10/03 00:13:03;;;;;;;;;;;;;;;29.31;32.14;101591.84;5015473;28;1121;-36
2021/10/03 00:15:29;;;;;;;;;;;;;;;29.04;32.61;101587.75;5015771;28;983;-34
2021/10/03 00:17:54;;;;;;;;;;;;;;;29.02;32.38;101587.94;5015273;28;1890;-36
2021/10/03 00:20:19;;;;;;;;;;;;;;;28.92;32.90;101592.66;4996837;28;1233;-32
2021/10/03 00:22:45;;;;;;;;;;;;;;;28.83;32.68;101589.97;5015342;28;1129;-32
2021/10/03 00:25:13;;;;;;;;;;;;;;;28.75;32.86;101590.00;5015509;28;1098;-35
2021/10/03 00:27:38;;;;;;;;;;;;;;;28.73;33.16;101595.59;5015613;28;1165;-36
2021/10/03 00:30:03;;;;;;;;;;;;;;;28.82;32.95;101592.88;4999472;28;1193;-34
2021/10/03 00:32:29;;;;;;;;;;;;;;;28.78;33.16;101592.38;5015248;28;1416;-33
2021/10/03 00:34:54;;;;;;;;;;;;;;;28.83;32.86;101586.41;5015194;28;1079;-34
2021/10/03 00:37:19;;;;;;;;;;;;;;;28.82;32.96;101585.59;5015168;28;1952;-32
2021/10/03 00:39:44;;;;;;;;;;;;;;;28.84;33.00;101585.44;5015610;28;1184;-31
2021/10/03 00:42:10;;;;;;;;;;;;;;;28.82;33.12;101585.59;5015096;28;1121;-31
2021/10/03 00:44:35;;;;;;;;;;;;;;;28.91;33.04;101580.97;5000503;28;1173;-33
2021/10/03 00:47:00;;;;;;;;;;;;;;;28.79;33.32;101579.69;5018768;28;1128;-34
2021/10/03 00:49:26;;;;;;;;;;;;;;;28.71;33.60;101577.84;5001861;28;1177;-35
2021/10/03 00:51:51;;;;;;;;;;;;;;;28.74;33.24;101569.38;5019075;28;1267;-34
2021/10/03 00:54:16;;;;;;;;;;;;;;;28.75;33.16;101567.50;5018818;28;1282;-33
2021/10/03 00:56:42;;;;;;;;;;;;;;;28.79;33.15;101574.25;5019256;28;1152;-34
2021/10/03 00:59:07;;;;;;;;;;;;;;;28.83;33.09;101578.28;5017721;28;1961;-37
2021/10/03 01:01:32;;;;;;;;;;;;;;;28.73;33.16;101570.38;5018510;28;1173;-35
2021/10/03 01:03:58;;;;;;;;;;;;;;;28.60;33.58;101565.53;5018538;28;1140;-33
2021/10/03 01:06:23;;;;;;;;;;;;;;;28.64;33.64;101566.88;5018785;28;1220;-32
2021/10/03 01:08:48;;;;;;;;;;;;;;;28.58;33.42;101568.41;5018669;28;1180;-35
2021/10/03 01:11:13;;;;;;;;;;;;;;;28.51;33.74;101563.88;5018406;28;1263;-35
2021/10/03 01:13:39;;;;;;;;;;;;;;;28.44;33.87;101561.84;5018545;28;1137;-35
2021/10/03 01:16:06;;;;;;;;;;;;;;;28.60;33.52;101565.53;5018475;28;1027;-30
2021/10/03 01:18:32;;;;;;;;;;;;;;;28.48;33.73;101568.59;5018750;28;1961;-34
2021/10/03 01:21:01;;;;;;;;;;;;;;;28.20;34.77;101568.94;5018342;28;1170;-34
2021/10/03 01:23:26;;;;;;;;;;;;;;;28.44;33.97;101569.13;5005262;28;1160;-33
2021/10/03 01:25:52;;;;;;;;;;;;;;;29.19;31.90;101571.59;5017650;28;1032;-33
2021/10/03 01:28:17;;;;;;;;;;;;;;;29.68;31.12;101566.91;5017958;28;1148;-35
2021/10/03 01:30:49;;;;;;;;;;;;;;;30.13;30.22;101566.22;5018077;28;1051;-34
2021/10/03 01:33:16;;;;;;;;;;;;;;;30.16;29.59;101558.53;5017935;28;1125;-34
2021/10/03 01:35:41;;;;;;;;;;;;;;;30.18;29.40;101558.34;5018191;28;1098;-33
2021/10/03 01:38:07;;;;;;;;;;;;;;;30.24;29.89;101556.81;5016015;28;1967;-34
2021/10/03 01:40:33;;;;;;;;;;;;;;;30.14;30.04;101548.91;5017725;28;1117;-38
2021/10/03 01:42:58;;;;;;;;;;;;;;;30.36;29.40;101549.91;5017908;28;1113;-36
2021/10/03 01:45:23;;;;;;;;;;;;;;;30.18;29.45;101552.91;5017853;28;1235;-33
2021/10/03 01:48:06;;;;;;;;;;;;;;;30.27;29.26;101542.88;5017511;28;1204;-33
2021/10/03 01:50:32;;;;;;;;;;;;;;;29.94;29.63;101547.56;5017079;28;1120;-32
2021/10/03 01:52:57;;;;;;;;;;;;;;;29.75;30.03;101554.31;5018211;28;1137;-34
2021/10/03 01:55:23;;;;;;;;;;;;;;;29.66;30.14;101556.22;5016778;28;1180;-33
2021/10/03 01:57:48;;;;;;;;;;;;;;;29.80;30.22;101551.06;5017171;28;1961;-33
2021/10/03 02:00:13;;;;;;;;;;;;;;;30.15;29.76;101545.16;5017835;28;981;-33
2021/10/03 02:02:39;;;;;;;;;;;;;;;30.08;29.44;101547.75;5016912;28;1081;-37
2021/10/03 02:05:04;;;;;;;;;;;;;;;29.91;29.72;101547.06;5017464;28;1125;-36
2021/10/03 02:07:29;;;;;;;;;;;;;;;29.64;30.12;101539.31;5017029;28;1141;-32
2021/10/03 02:09:55;;;;;;;;;;;;;;;29.72;30.34;101543.84;5017429;28;1333;-35
2021/10/03 02:12:21;;;;;;;;;;;;;;;29.87;30.00;101549.31;5016883;28;1133;-36
2021/10/03 02:14:46;;;;;;;;;;;;;;;30.27;29.34;101551.84;5017347;28;1133;-35
2021/10/03 02:17:11;;;;;;;;;;;;;;;30.07;29.27;101551.50;5017128;28;1953;-34
2021/10/03 02:19:37;;;;;;;;;;;;;;;29.87;29.74;101551.16;5017189;28;1188;-35
2021/10/03 02:22:02;;;;;;;;;;;;;;;29.63;30.24;101545.75;5017290;28;1097;-33
2021/10/03 02:24:28;;;;;;;;;;;;;;;30.05;29.60;101537.28;5017489;28;1156;-31
2021/10/03 02:26:53;;;;;;;;;;;;;;;30.27;29.11;101543.72;5017426;28;1165;-34
2021/10/03 02:29:18;;;;;;;;;;;;;;;29.98;29.40;101533.63;5016429;28;1090;-30
2021/10/03 02:31:44;;;;;;;;;;;;;;;29.72;29.85;101535.69;5016924;28;1200;-36
2021/10/03 02:34:09;;;;;;;;;;;;;;;29.85;29.80;101537.78;5016879;28;1090;-33
2021/10/03 02:36:34;;;;;;;;;;;;;;;30.06;29.48;101523.53;5020461;28;1253;-33
2021/10/03 02:39:00;;;;;;;;;;;;;;;30.17;29.08;101524.97;5028239;28;1977;-35
2021/10/03 02:41:25;;;;;;;;;;;;;;;29.84;29.55;101530.69;5016035;28;1156;-34
2021/10/03 02:43:52;;;;;;;;;;;;;;;29.74;29.70;101530.94;5018806;28;1034;-37
2021/10/03 02:46:17;;;;;;;;;;;;;;;29.69;30.03;101523.38;5017150;28;1168;-33
2021/10/03 02:48:49;;;;;;;;;;;;;;;29.88;29.88;101523.84;5030245;28;1144;-32
2021/10/03 02:51:14;;;;;;;;;;;;;;;30.34;28.99;101522.09;5016917;28;1177;-32
2021/10/03 02:53:39;;;;;;;;;;;;;;;30.02;29.28;101527.66;5026770;28;1179;-31
2021/10/03 02:56:05;;;;;;;;;;;;;;;29.62;29.83;101532.38;5016147;28;1164;-35
2021/10/03 02:58:30;;;;;;;;;;;;;;;30.02;29.58;101529.50;5027151;28;1910;-35
2021/10/03 03:00:55;;;;;;;;;;;;;;;30.05;29.22;101531.84;5019030;28;1074;-34
2021/10/03 03:03:21;;;;;;;;;;;;;;;29.81;29.52;101531.88;5016525;28;1153;-32
2021/10/03 03:05:46;;;;;;;;;;;;;;;29.63;29.82;101528.66;5016623;28;1160;-36
2021/10/03 03:08:11;;;;;;;;;;;;;;;29.93;29.52;101529.59;5023230;28;964;-36
2021/10/03 03:10:36;;;;;;;;;;;;;;;30.14;29.00;101533.47;5023014;28;1104;-35
2021/10/03 03:13:02;;;;;;;;;;;;;;;29.68;29.73;101540.63;5016126;28;1188;-34
2021/10/03 03:15:27;;;;;;;;;;;;;;;29.55;29.90;101533.09;5016514;28;1047;-31
2021/10/03 03:17:52;;;;;;;;;;;;;;;29.30;30.49;101529.69;5016081;28;1976;-33
2021/10/03 03:20:18;;;;;;;;;;;;;;;27.43;26.92;101530.34;5015836;28;893;-34
2021/10/03 03:22:43;;;;;;;;;;;;;;;26.40;26.07;101522.16;5016616;28;1257;-31
2021/10/03 03:25:09;;;;;;;;;;;;;;;26.10;26.72;101521.59;5016123;28;1176;-32
2021/10/03 03:27:34;;;;;;;;;;;;;;;25.47;26.89;101532.31;5016412;28;1181;-35
2021/10/03 03:30:00;;;;;;;;;;;;;;;25.46;27.85;101531.47;5020172;28;1113;-30
2021/10/03 03:32:25;;;;;;;;;;;;;;;25.39;27.61;101522.31;5024632;28;1124;-35
2021/10/03 03:34:50;;;;;;;;;;;;;;;25.41;26.90;101526.53;5015148;28;1274;-32
2021/10/03 03:37:16;;;;;;;;;;;;;;;25.19;27.96;101538.59;5015712;28;1972;-32
2021/10/03 03:39:41;;;;;;;;;;;;;;;25.04;27.72;101539.06;5015640;28;1228;-38
2021/10/03 03:42:06;;;;;;;;;;;;;;;24.95;28.13;101540.00;5015283;28;1236;-37
2021/10/03 03:44:32;;;;;;;;;;;;;;;24.94;27.69;101544.50;5015522;28;1153;-32
2021/10/03 03:46:57;;;;;;;;;;;;;;;24.90;27.72;101545.81;5016080;28;1140;-31
2021/10/03 03:49:22;;;;;;;;;;;;;;;25.33;29.65;101544.44;5002378;28;1074;-36
2021/10/03 03:51:48;;;;;;;;;;;;;;;25.29;29.26;101546.63;5015600;28;1129;-30
2021/10/03 03:54:13;;;;;;;;;;;;;;;25.33;30.09;101544.44;5015249;28;1540;-35
2021/10/03 03:56:38;;;;;;;;;;;;;;;22.26;29.58;101543.28;5013877;28;1400;-34
2021/10/03 03:59:04;;;;;;;;;;;;;;;22.10;32.15;101538.38;5011169;28;1898;-35
2021/10/03 04:01:29;;;;;;;;;;;;;;;23.95;30.36;101541.16;5011319;28;1030;-38
2021/10/03 04:03:54;;;;;;;;;;;;;;;25.54;28.37;101544.19;5015979;28;1241;-35
2021/10/03 04:06:20;;;;;;;;;;;;;;;26.93;25.84;101546.38;5015105;28;1089;-35
2021/10/03 04:08:45;;;;;;;;;;;;;;;26.35;25.39;101548.78;5015729;28;1133;-33
2021/10/03 04:11:13;;;;;;;;;;;;;;;25.65;26.55;101554.75;5011745;28;1144;-38
2021/10/03 04:13:38;;;;;;;;;;;;;;;25.48;27.16;101542.94;5015398;28;1237;-34
2021/10/03 04:16:03;;;;;;;;;;;;;;;25.74;27.31;101544.88;5015259;28;1004;-35
2021/10/03 04:18:29;;;;;;;;;;;;;;;25.55;27.12;101556.66;5016834;28;1963;-35
2021/10/03 04:20:54;;;;;;;;;;;;;;;25.49;27.86;101550.00;5019168;28;1220;-35
2021/10/03 04:23:19;;;;;;;;;;;;;;;25.95;27.20;101557.22;5019024;28;1208;-33
2021/10/03 04:25:44;;;;;;;;;;;;;;;26.01;26.82;101566.50;5018932;28;1157;-33
2021/10/03 04:28:13;;;;;;;;;;;;;;;25.84;26.95;101560.97;5019043;28;1113;-35
2021/10/03 04:30:38;;;;;;;;;;;;;;;25.70;27.38;101558.84;5019510;28;984;-37
2021/10/03 04:33:03;;;;;;;;;;;;;;;25.58;26.64;101571.63;5019333;28;1204;-35
2021/10/03 04:35:28;;;;;;;;;;;;;;;25.70;26.05;101562.38;5018800;28;1210;-37
2021/10/03 04:37:54;;;;;;;;;;;;;;;25.72;26.37;101584.66;5018824;28;1899;-35
2021/10/03 04:40:19;;;;;;;;;;;;;;;25.75;26.34;101570.00;5019291;28;1144;-43
2021/10/03 04:42:47;;;;;;;;;;;;;;;25.96;24.67;101572.38;5018436;28;1204;-47
2021/10/03 04:45:12;;;;;;;;;;;;;;;25.56;25.16;101569.97;5014673;28;1195;-46
2021/10/03 04:47:38;;;;;;;;;;;;;;;25.44;24.80;101572.00;5018494;28;1177;-44
2021/10/03 04:50:03;;;;;;;;;;;;;;;25.72;24.76;101576.56;5018474;28;950;-44
2021/10/03 04:52:29;;;;;;;;;;;;;;;25.73;24.98;101580.06;5018784;28;1184;-45
2021/10/03 04:54:54;;;;;;;;;;;;;;;25.79;24.97;101576.78;5018377;28;1138;-43
2021/10/03 04:57:19;;;;;;;;;;;;;;;25.66;25.65;101574.44;5018939;28;1905;-43
2021/10/03 04:59:45;;;;;;;;;;;;;;;25.50;25.79;101577.81;5019075;28;984;-44
2021/10/03 05:02:10;;;;;;;;;;;;;;;25.67;25.78;101576.16;5017698;28;1187;-42
2021/10/03 05:04:35;;;;;;;;;;;;;;;25.60;26.01;101577.72;5018233;28;1520;-41
2021/10/03 05:07:01;;;;;;;;;;;;;;;25.53;26.11;101567.56;5018548;28;1216;-41
2021/10/03 05:09:26;;;;;;;;;;;;;;;25.56;26.34;101569.97;5018360;28;1199;-42
2021/10/03 05:11:51;;;;;;;;;;;;;;;25.47;27.09;101581.66;5018567;28;1165;-41
2021/10/03 05:14:16;;;;;;;;;;;;;;;25.54;26.77;101574.66;5017749;28;1105;-42
2021/10/03 05:16:42;;;;;;;;;;;;;;;25.44;27.13;101520.84;5018237;28;1125;-43
2021/10/03 05:19:07;;;;;;;;;;;;;;;26.29;26.88;101571.81;5018330;28;1959;-43
2021/10/03 05:21:32;;;;;;;;;;;;;;;26.80;26.56;101572.97;5018525;28;1192;-42
2021/10/03 05:23:58;;;;;;;;;;;;;;;26.80;26.22;101589.16;5017825;28;1132;-41
2021/10/03 05:26:23;;;;;;;;;;;;;;;28.38;24.42;101592.28;5018029;28;1102;-40
2021/10/03 05:28:49;;;;;;;;;;;;;;;28.75;23.52;101602.69;5017988;28;1013;-41
2021/10/03 05:31:14;;;;;;;;;;;;;;;27.97;23.45;101606.66;5010923;28;1090;-42
2021/10/03 05:33:39;;;;;;;;;;;;;;;27.20;24.68;101606.63;5018006;28;1113;-40
2021/10/03 05:36:05;;;;;;;;;;;;;;;26.98;25.50;101602.59;5017249;28;1343;-40
2021/10/03 05:38:30;;;;;;;;;;;;;;;26.81;25.92;101610.59;5017817;28;1902;-39
2021/10/03 05:40:55;;;;;;;;;;;;;;;26.69;26.02;101607.34;5017647;28;901;-39
2021/10/03 05:43:21;;;;;;;;;;;;;;;26.51;26.49;101605.53;5018138;28;1141;-40
2021/10/03 05:45:46;;;;;;;;;;;;;;;26.46;26.49;101618.66;5017105;28;1125;-41
2021/10/03 05:48:11;;;;;;;;;;;;;;;26.29;26.58;101614.97;5121144;22;7355;-39
2021/10/03 05:50:37;;;;;;;;;;;;;;;26.39;26.51;101617.59;5139160;22;7209;-38
2021/10/03 05:53:02;;;;;;;;;;;;;;;26.29;26.34;101610.41;5054087;28;1520;-38
2021/10/03 05:55:27;;;;;;;;;;;;;;;26.24;26.73;101618.09;5044686;28;1178;-38
2021/10/03 05:57:52;;;;;;;;;;;;;;;26.22;26.79;101606.66;5049618;28;1926;-38
2021/10/03 06:00:18;;;;;;;;;;;;;;;26.08;26.88;101608.03;5040370;28;804;-39
2021/10/03 06:02:43;;;;;;;;;;;;;;;26.21;26.90;101621.13;5037484;28;780;-38
2021/10/03 06:11:14;;;;;;;;;;;;;;;26.43;26.26;101613.56;5954084;22;3656;-36
2021/10/03 06:13:40;;;;;;;;;;;;;;;26.59;25.61;101604.72;5044099;28;7162;-39
2021/10/03 06:16:06;;;;;;;;;;;;;;;26.65;25.86;101609.53;5056894;28;958;-38
2021/10/03 06:18:31;;;;;;;;;;;;;;;26.52;26.25;101609.94;5049403;28;1910;-39
2021/10/03 06:20:56;;;;;;;;;;;;;;;26.56;26.47;101613.16;5057119;28;911;-39
2021/10/03 06:23:22;;;;;;;;;;;;;;;26.52;26.87;101615.34;5056909;28;827;-39
2021/10/03 06:25:47;;;;;;;;;;;;;;;26.52;26.49;101619.88;5056644;28;1506;-39
2021/10/03 06:28:12;;;;;;;;;;;;;;;26.58;26.86;101623.78;5056959;28;877;-39
2021/10/03 06:30:37;;;;;;;;;;;;;;;26.76;26.25;101623.72;5056932;28;1038;-37
2021/10/03 06:33:03;;;;;;;;;;;;;;;26.96;25.87;101627.06;5050267;28;1525;-38
2021/10/03 06:35:28;;;;;;;;;;;;;;;26.67;26.50;101625.56;5038116;28;970;-37
2021/10/03 06:37:54;;;;;;;;;;;;;;;27.31;26.39;101635.19;5036616;28;1899;-38
2021/10/03 06:40:19;;;;;;;;;;;;;;;27.20;26.39;101636.31;5036240;28;1053;-38
2021/10/03 06:42:45;;;;;;;;;;;;;;;27.08;26.92;101632.19;5039363;28;1156;-37
2021/10/03 06:45:10;;;;;;;;;;;;;;;26.78;27.29;101632.53;5051728;28;854;-38
2021/10/03 06:47:35;;;;;;;;;;;;;;;26.71;28.36;101621.50;5044289;28;1131;-38
2021/10/03 06:50:02;;;;;;;;;;;;;;;26.96;28.02;101632.44;5053973;28;1068;-37
2021/10/03 06:52:27;;;;;;;;;;;;;;;27.08;27.90;101633.06;5056483;28;1139;-37
2021/10/03 06:54:52;;;;;;;;;;;;;;;27.09;27.59;101631.22;5054832;28;1092;-39
2021/10/03 06:57:17;;;;;;;;;;;;;;;27.11;27.84;101623.81;5045271;28;892;-39
2021/10/03 06:59:43;;;;;;;;;;;;;;;26.82;28.08;101622.25;5056084;28;1957;-38
2021/10/03 07:02:19;;;;;;;;;;;;;;;26.86;28.05;101618.25;5044253;28;1096;-37
2021/10/03 07:04:44;;;;;;;;;;;;;;;27.24;28.13;101617.94;5037628;28;1128;-38
2021/10/03 07:07:10;;;;;;;;;;;;;;;27.24;28.40;101617.94;5050110;28;1198;-37
2021/10/03 07:09:35;;;;;;;;;;;;;;;27.24;28.41;101615.25;5046904;28;1073;-38
2021/10/03 07:12:00;;;;;;;;;;;;;;;27.21;29.18;101605.59;5043388;28;1151;-37
2021/10/03 07:14:25;;;;;;;;;;;;;;;27.25;29.19;101601.56;5044359;28;1175;-38
2021/10/03 07:16:51;;;;;;;;;;;;;;;27.30;29.20;101606.47;5056025;28;1138;-38
2021/10/03 07:19:16;;;;;;;;;;;;;;;27.33;29.63;101606.16;5055836;28;2215;-38
2021/10/03 07:21:43;;;;;;;;;;;;;;;27.33;29.70;101600.75;5051089;28;1104;-38
2021/10/03 07:24:08;;;;;;;;;;;;;;;27.42;29.53;101612.44;5054848;28;1407;-39
2021/10/03 07:26:33;;;;;;;;;;;;;;;27.34;30.14;101604.31;5056005;28;1104;-38
2021/10/03 07:28:58;;;;;;;;;;;;;;;27.46;30.15;101619.19;5054914;28;1127;-38
2021/10/03 07:31:24;;;;;;;;;;;;;;;27.51;29.91;101610.59;5037283;28;1136;-38
2021/10/03 07:33:49;;;;;;;;;;;;;;;27.36;30.59;101618.50;5050111;28;1108;-37
2021/10/03 07:36:19;;;;;;;;;;;;;;;27.43;30.26;101615.97;5047208;28;1111;-39
2021/10/03 07:38:44;;;;;;;;;;;;;;;27.28;31.11;101613.06;5036611;28;1914;-38
2021/10/03 07:41:10;;;;;;;;;;;;;;;27.35;30.89;101612.25;5037609;28;1132;-38
2021/10/03 07:43:35;;;;;;;;;;;;;;;27.46;30.03;101619.19;5037487;28;1049;-38
2021/10/03 07:46:00;;;;;;;;;;;;;;;27.57;30.11;101628.00;5040912;28;1124;-38
2021/10/03 07:48:26;;;;;;;;;;;;;;;27.18;30.32;101623.97;5055379;28;868;-38
2021/10/03 07:50:51;;;;;;;;;;;;;;;27.36;30.52;101622.03;5056372;28;1136;-37
2021/10/03 07:53:16;;;;;;;;;;;;;;;27.48;30.44;101622.59;5036032;28;1160;-39
2021/10/03 07:55:43;;;;;;;;;;;;;;;27.51;30.23;101627.66;5046762;28;1186;-39
2021/10/03 07:58:09;;;;;;;;;;;;;;;27.59;30.65;101639.50;5055578;28;1977;-38
2021/10/03 08:00:34;;;;;;;;;;;;;;;27.66;29.79;101624.31;5050859;28;1436;-38
2021/10/03 08:02:59;;;;;;;;;;;;;;;27.61;30.66;101630.22;5041129;28;1120;-38
2021/10/03 08:05:25;;;;;;;;;;;;;;;27.57;30.99;101620.75;5056113;28;1155;-39
2021/10/03 08:07:50;;;;;;;;;;;;;;;27.68;30.78;101621.44;5055394;28;1120;-38
2021/10/03 08:10:15;;;;;;;;;;;;;;;27.75;31.00;101619.78;5055083;28;1132;-39
2021/10/03 08:12:41;;;;;;;;;;;;;;;27.90;30.79;101619.13;5055763;28;1131;-38
2021/10/03 08:15:06;;;;;;;;;;;;;;;27.94;30.52;101620.50;5055415;28;1080;-37
2021/10/03 08:17:32;;;;;;;;;;;;;;;28.02;30.33;101622.38;5054722;28;1973;-38
2021/10/03 08:19:57;;;;;;;;;;;;;;;28.03;30.56;101613.25;5055576;28;1100;-38
2021/10/03 08:22:22;;;;;;;;;;;;;;;28.17;30.57;101617.97;5056240;28;1088;-38
2021/10/03 08:24:47;;;;;;;;;;;;;;;28.21;30.51;101613.09;5055357;28;1092;-38
2021/10/03 08:27:13;;;;;;;;;;;;;;;28.16;30.44;101610.88;5046359;28;1202;-38
2021/10/03 08:29:38;;;;;;;;;;;;;;;28.10;29.98;101615.09;5046056;28;1147;-38
2021/10/03 08:32:04;;;;;;;;;;;;;;;28.26;30.06;101615.28;5052769;28;1140;-38
2021/10/03 08:34:29;;;;;;;;;;;;;;;28.31;30.17;101615.63;5035478;28;1147;-38
2021/10/03 08:36:54;;;;;;;;;;;;;;;28.33;30.26;101619.84;5049540;28;1096;-38
2021/10/03 08:39:19;;;;;;;;;;;;;;;28.35;30.37;101625.09;5037116;28;1897;-39
2021/10/03 08:41:46;;;;;;;;;;;;;;;28.28;30.69;101621.38;5047639;28;1108;-39
2021/10/03 08:44:11;;;;;;;;;;;;;;;28.24;30.59;101621.69;5040242;28;1112;-39
2021/10/03 08:46:36;;;;;;;;;;;;;;;28.13;31.15;101627.44;5049455;28;1179;-38
2021/10/03 08:49:03;;;;;;;;;;;;;;;28.26;30.60;101629.63;5047173;28;1077;-38
2021/10/03 08:51:28;;;;;;;;;;;;;;;28.24;30.77;101623.56;5053891;28;1131;-39
2021/10/03 08:53:54;;;;;;;;;;;;;;;28.37;30.55;101623.06;5045727;28;1144;-39
2021/10/03 08:56:19;;;;;;;;;;;;;;;28.38;30.70;101624.75;5039709;28;1268;-39
2021/10/03 08:58:44;;;;;;;;;;;;;;;28.54;30.55;101618.50;5040941;28;1894;-39
2021/10/03 09:01:13;;;;;;;;;;;;;;;28.57;30.72;101625.41;5042402;28;999;-39
2021/10/03 09:03:38;;;;;;;;;;;;;;;28.60;30.71;101634.03;5042061;28;982;-39
2021/10/03 09:06:03;;;;;;;;;;;;;;;28.52;30.99;101622.38;5057399;28;1132;-39
2021/10/03 09:08:30;;;;;;;;;;;;;;;28.38;28.46;101613.94;5058735;28;1120;-39
2021/10/03 09:11:04;;;;;;;;;;;;;;;28.47;29.68;101622.91;5050850;28;1119;-39
2021/10/03 09:13:29;;;;;;;;;;;;;;;28.63;30.54;101626.59;5043234;28;1218;-37
2021/10/03 09:16:07;;;;;;;;;;;;;;;28.66;30.44;101612.72;5049109;28;1055;-38
2021/10/03 09:18:45;;;;;;;;;;;;;;;28.71;30.51;101613.88;5042531;28;1910;-38
2021/10/03 09:21:11;;;;;;;;;;;;;;;28.69;30.52;101613.22;5053386;28;1156;-39
2021/10/03 09:23:37;;;;;;;;;;;;;;;28.77;30.37;101606.09;5052355;28;1198;-39
2021/10/03 09:26:02;;;;;;;;;;;;;;;28.73;30.33;101609.13;5057422;28;1107;-38
2021/10/03 09:28:30;;;;;;;;;;;;;;;28.76;30.26;101609.81;5047030;28;1175;-38
2021/10/03 09:30:55;;;;;;;;;;;;;;;28.86;30.24;101613.19;5057339;28;979;-38
2021/10/03 09:33:20;;;;;;;;;;;;;;;28.84;30.54;101615.22;5058233;28;1143;-38
2021/10/03 09:35:59;;;;;;;;;;;;;;;28.77;30.44;101612.34;5051605;28;1140;-38
2021/10/03 09:38:27;;;;;;;;;;;;;;;28.71;30.42;101604.94;5045856;28;1957;-38
2021/10/03 09:41:02;;;;;;;;;;;;;;;28.83;30.35;101610.78;5050727;28;1194;-39
2021/10/03 09:43:39;;;;;;;;;;;;;;;28.80;30.42;101603.03;5047320;28;1175;-38
2021/10/03 09:46:05;;;;;;;;;;;;;;;28.85;30.50;101603.34;5051244;28;1081;-39
2021/10/03 09:48:43;;;;;;;;;;;;;;;28.84;30.42;101597.06;5058218;28;1410;-39
2021/10/03 09:51:09;;;;;;;;;;;;;;;28.90;30.28;101600.13;5058650;28;1158;-39
2021/10/03 09:53:34;;;;;;;;;;;;;;;28.95;30.24;101601.28;5055688;28;1139;-39
2021/10/03 09:55:59;;;;;;;;;;;;;;;29.04;29.64;101598.59;5036564;28;1222;-39
2021/10/03 09:58:25;;;;;;;;;;;;;;;28.96;29.56;101591.31;5055689;28;2075;-39
2021/10/03 10:00:50;;;;;;;;;;;;;;;28.93;29.55;101592.50;5056607;28;1054;-39
2021/10/03 10:03:15;;;;;;;;;;;;;;;28.84;28.99;101588.13;5057892;28;1116;-40
2021/10/03 10:05:40;;;;;;;;;;;;;;;28.84;29.49;101593.56;5040363;28;1132;-40
2021/10/03 10:08:06;;;;;;;;;;;;;;;28.73;29.48;101592.91;5020880;28;1187;-39
2021/10/03 10:10:31;;;;;;;;;;;;;;;28.93;29.60;101586.22;5044721;28;1131;-39
2021/10/03 10:13:03;;;;;;;;;;;;;;;29.06;29.17;101583.81;5057637;28;1209;-40
2021/10/03 10:15:28;;;;;;;;;;;;;;;28.80;29.01;101581.38;5054897;28;1127;-39
2021/10/03 10:17:53;;;;;;;;;;;;;;;27.95;29.79;101585.19;5057348;28;1957;-39
2021/10/03 10:20:24;;;;;;;;;;;;;;;28.39;28.93;101587.72;5057202;28;1163;-39
2021/10/03 10:22:55;;;;;;;;;;;;;;;28.48;27.24;101575.84;5045428;28;1307;-40
2021/10/03 10:25:39;;;;;;;;;;;;;;;28.72;28.67;101572.25;5053831;28;965;-39
2021/10/03 10:28:06;;;;;;;;;;;;;;;28.84;28.87;101575.41;5046077;28;981;-39
2021/10/03 10:30:31;;;;;;;;;;;;;;;28.91;28.06;101564.72;5053962;28;1521;-40
2021/10/03 10:32:58;;;;;;;;;;;;;;;29.01;28.04;101558.31;5057257;28;1151;-39
2021/10/03 10:35:24;;;;;;;;;;;;;;;29.03;27.72;101558.97;5046028;28;946;-39
2021/10/03 10:37:49;;;;;;;;;;;;;;;28.98;27.98;101562.19;5053829;28;1910;-39
2021/10/03 10:40:20;;;;;;;;;;;;;;;29.04;28.13;101569.63;5043223;28;1230;-40
2021/10/03 10:42:46;;;;;;;;;;;;;;;29.20;27.73;101562.44;5043572;28;1049;-40
2021/10/03 10:45:26;;;;;;;;;;;;;;;29.26;27.59;101558.19;5046818;28;1135;-40
2021/10/03 10:48:07;;;;;;;;;;;;;;;29.15;27.98;101564.81;5051319;28;1176;-40
2021/10/03 10:50:52;;;;;;;;;;;;;;;29.12;28.28;101565.19;5057156;28;1091;-40
2021/10/03 10:53:18;;;;;;;;;;;;;;;29.14;28.28;101561.28;5027996;28;1883;-39
2021/10/03 10:55:58;;;;;;;;;;;;;;;28.98;28.27;101561.38;5056768;28;1159;-39
2021/10/03 10:58:24;;;;;;;;;;;;;;;29.03;28.15;101556.28;5056527;28;1965;-40
2021/10/03 11:00:54;;;;;;;;;;;;;;;28.99;28.36;101560.34;5045139;28;1037;-39
2021/10/03 11:03:20;;;;;;;;;;;;;;;29.08;28.26;101556.56;5054344;28;1108;-40
2021/10/03 11:05:47;;;;;;;;;;;;;;;29.02;28.25;101550.00;5047545;28;1171;-38
2021/10/03 11:08:13;;;;;;;;;;;;;;;29.18;28.10;101550.91;5055546;28;1103;-40
2021/10/03 11:10:59;;;;;;;;;;;;;;;29.34;27.68;101550.00;5056784;28;1119;-39
2021/10/03 11:13:46;;;;;;;;;;;;;;;29.18;27.69;101553.63;5055663;28;1155;-40
2021/10/03 11:16:46;;;;;;;;;;;;;;;29.08;27.78;101551.13;5044550;28;1022;-40
2021/10/03 11:19:22;;;;;;;;;;;;;;;29.02;28.02;101544.59;5037222;28;1910;-38
2021/10/03 11:21:58;;;;;;;;;;;;;;;28.81;28.66;101545.97;5038146;28;1219;-39
2021/10/03 11:24:24;;;;;;;;;;;;;;;28.89;28.54;101542.41;5056311;28;1171;-39
2021/10/03 11:27:00;;;;;;;;;;;;;;;28.84;28.71;101547.50;5041140;28;1041;-39
2021/10/03 11:29:28;;;;;;;;;;;;;;;28.88;28.66;101537.19;5051509;28;1195;-39
2021/10/03 11:31:55;;;;;;;;;;;;;;;28.92;28.28;101530.38;5054180;28;1194;-39
2021/10/03 11:34:31;;;;;;;;;;;;;;;29.02;28.14;101535.59;5054758;28;1131;-39
2021/10/03 11:36:56;;;;;;;;;;;;;;;28.99;28.13;101525.97;5038733;28;1100;-39
2021/10/03 11:39:42;;;;;;;;;;;;;;;28.94;27.94;101533.75;5047833;28;1969;-39
2021/10/03 11:42:30;;;;;;;;;;;;;;;28.95;28.32;101535.44;5035981;28;1441;-39
2021/10/03 11:45:04;;;;;;;;;;;;;;;28.70;28.59;101538.25;5042904;28;1104;-39
2021/10/03 11:47:49;;;;;;;;;;;;;;;28.67;28.38;101531.34;5056131;28;1123;-39
2021/10/03 11:50:24;;;;;;;;;;;;;;;28.67;28.65;101528.63;5037705;28;1790;-39
2021/10/03 11:53:09;;;;;;;;;;;;;;;28.79;28.13;101520.97;5041130;28;1198;-39
2021/10/03 11:55:35;;;;;;;;;;;;;;;28.76;28.57;101523.19;5049032;28;1658;-38
2021/10/03 11:58:04;;;;;;;;;;;;;;;28.81;28.40;101527.03;5045858;28;1899;-39
2021/10/03 12:00:30;;;;;;;;;;;;;;;28.63;26.76;101524.56;5046979;28;1026;-39
2021/10/03 12:02:56;;;;;;;;;;;;;;;28.16;25.88;101518.06;5048822;28;1191;-39
2021/10/03 12:05:25;;;;;;;;;;;;;;;28.30;26.20;101519.22;5041040;28;1143;-39
2021/10/03 12:08:04;;;;;;;;;;;;;;;28.53;27.18;101522.06;5041802;28;1171;-39
2021/10/03 12:10:49;;;;;;;;;;;;;;;28.55;27.24;101524.59;5049162;28;1112;-40
2021/10/03 12:13:23;;;;;;;;;;;;;;;28.42;26.22;101523.28;5054954;28;1229;-39
2021/10/03 12:15:49;;;;;;;;;;;;;;;28.40;26.27;101514.50;5051494;28;1015;-39
2021/10/03 12:18:26;;;;;;;;;;;;;;;28.33;26.56;101514.34;5042354;28;1906;-39
2021/10/03 12:21:02;;;;;;;;;;;;;;;28.31;27.71;101518.22;5043982;28;1097;-39
2021/10/03 12:23:46;;;;;;;;;;;;;;;28.38;27.71;101515.69;5055118;28;1143;-39
2021/10/03 12:26:17;;;;;;;;;;;;;;;28.32;27.90;101518.03;5036673;28;1112;-39
2021/10/03 12:28:49;;;;;;;;;;;;;;;28.36;27.97;101516.69;5039609;28;1164;-39
2021/10/03 12:31:32;;;;;;;;;;;;;;;28.31;27.38;101515.50;5037037;28;1084;-39
2021/10/03 12:33:57;;;;;;;;;;;;;;;28.43;27.93;101516.84;5037809;28;1108;-39
2021/10/03 12:36:22;;;;;;;;;;;;;;;28.39;28.00;101512.81;5036502;28;1088;-39
2021/10/03 12:38:47;;;;;;;;;;;;;;;28.39;27.94;101512.81;5037973;28;1902;-39
2021/10/03 12:41:13;;;;;;;;;;;;;;;28.42;28.36;101514.31;5047149;28;1132;-39
2021/10/03 12:43:47;;;;;;;;;;;;;;;28.83;27.48;101519.56;5046291;28;1156;-38
2021/10/03 12:46:13;;;;;;;;;;;;;;;28.67;27.76;101509.69;5039527;28;914;-38
2021/10/03 12:48:38;;;;;;;;;;;;;;;28.66;27.95;101507.97;5047893;28;1085;-38
2021/10/03 12:51:03;;;;;;;;;;;;;;;28.67;27.94;101515.09;5059006;28;1116;-39
2021/10/03 12:53:28;;;;;;;;;;;;;;;28.57;28.23;101511.72;5059166;28;1108;-39